createdAt,value
2022-11-05T00:00:17.186Z,90.72
2022-11-05T00:03:01.885Z,90.47
2022-11-05T00:05:47.209Z,90.27
2022-11-05T00:08:32.680Z,90.51
2022-11-05T00:10:59.218Z,90.37
2022-11-05T00:13:44.035Z,90.48
2022-11-05T00:16:28.835Z,90.26
2022-11-05T00:19:21.239Z,90.07
2022-11-05T00:22:06.129Z,90.00
2022-11-05T00:24:50.737Z,89.77
2022-11-05T00:27:17.053Z,89.73
2022-11-05T00:29:43.344Z,90.05
2022-11-05T00:32:09.661Z,89.46
2022-11-05T00:34:36.031Z,89.66
2022-11-05T00:37:02.330Z,89.50
2022-11-05T00:39:28.630Z,89.33
2022-11-05T00:42:13.596Z,89.54
2022-11-05T00:44:58.904Z,89.49
2022-11-05T00:47:57.340Z,88.77
2022-11-05T00:50:24.504Z,89.01
2022-11-05T00:52:55.415Z,89.31
2022-11-05T00:55:48.866Z,89.01
2022-11-05T00:58:17.465Z,88.65
2022-11-05T01:00:48.327Z,88.90
2022-11-05T01:03:16.482Z,89.06
2022-11-05T01:05:45.144Z,88.81
2022-11-05T01:08:12.557Z,88.75
2022-11-05T01:10:44.121Z,88.50
2022-11-05T01:13:13.171Z,88.28
2022-11-05T01:15:40.712Z,88.25
2022-11-05T01:18:07.514Z,88.59
2022-11-05T01:20:33.972Z,88.87
2022-11-05T01:23:00.342Z,88.82
2022-11-05T01:25:27.026Z,89.11
2022-11-05T01:27:53.424Z,89.30
2022-11-05T01:30:19.857Z,89.09
2022-11-05T01:32:46.231Z,89.17
2022-11-05T01:35:14.860Z,89.31
2022-11-05T01:37:41.501Z,89.65
2022-11-05T01:40:11.666Z,89.76
2022-11-05T01:42:38.000Z,89.66
2022-11-05T01:45:26.609Z,89.17
2022-11-05T01:47:58.872Z,89.16
2022-11-05T01:51:02.481Z,89.06
2022-11-05T01:53:53.455Z,89.24
2022-11-05T01:56:45.408Z,89.26
2022-11-05T01:59:16.297Z,89.37
2022-11-05T02:01:42.686Z,89.50
2022-11-05T02:04:14.790Z,90.04
2022-11-05T02:06:46.617Z,90.00
2022-11-05T02:09:19.870Z,89.91
2022-11-05T02:11:46.710Z,90.20
2022-11-05T02:14:13.021Z,90.47
2022-11-05T02:16:48.765Z,91.27
2022-11-05T02:20:03.788Z,91.31
2022-11-05T02:22:42.332Z,91.40
2022-11-05T02:25:23.822Z,91.40
2022-11-05T02:28:27.731Z,91.41
2022-11-05T02:30:57.929Z,91.40
2022-11-05T02:33:48.343Z,91.66
2022-11-05T02:36:39.394Z,91.51
2022-11-05T02:39:42.866Z,90.62
2022-11-05T02:42:42.920Z,90.52
2022-11-05T02:45:34.353Z,90.27
2022-11-05T02:48:23.432Z,90.88
2022-11-05T02:51:08.346Z,90.93
2022-11-05T02:54:02.578Z,90.97
2022-11-05T02:56:32.580Z,90.81
2022-11-05T02:58:58.881Z,91.01
2022-11-05T03:01:25.483Z,91.16
2022-11-05T03:03:55.710Z,91.00
2022-11-05T03:06:42.125Z,91.07
2022-11-05T03:09:41.801Z,91.39
2022-11-05T03:12:29.912Z,91.02
2022-11-05T03:15:15.009Z,91.12
2022-11-05T03:17:55.393Z,91.04
2022-11-05T03:20:30.366Z,90.84
2022-11-05T03:23:24.845Z,91.00
2022-11-05T03:26:12.356Z,90.91
2022-11-05T03:28:43.016Z,90.80
2022-11-05T03:31:14.100Z,90.86
2022-11-05T03:33:43.025Z,90.52
2022-11-05T03:36:19.219Z,90.57
2022-11-05T03:38:50.134Z,90.70
2022-11-05T03:41:18.353Z,90.77
2022-11-05T03:43:49.868Z,90.73
2022-11-05T03:46:21.371Z,90.99
2022-11-05T03:48:52.717Z,91.00
2022-11-05T03:51:37.846Z,90.88
2022-11-05T03:54:05.057Z,91.13
2022-11-05T03:56:45.177Z,91.36
2022-11-05T03:59:12.548Z,91.29
2022-11-05T04:01:41.472Z,91.11
2022-11-05T04:04:09.592Z,91.38
2022-11-05T04:06:54.827Z,91.22
2022-11-05T04:09:39.462Z,91.43
2022-11-05T04:12:44.542Z,91.55
2022-11-05T04:15:10.883Z,91.39
2022-11-05T04:17:37.372Z,91.36
2022-11-05T04:20:22.423Z,91.21
2022-11-05T04:23:07.167Z,90.88
2022-11-05T04:25:33.981Z,91.05
2022-11-05T04:28:00.599Z,91.55
2022-11-05T04:30:27.546Z,91.56
2022-11-05T04:32:59.111Z,91.90
2022-11-05T04:35:26.340Z,91.92
2022-11-05T04:37:52.856Z,92.12
2022-11-05T04:40:19.239Z,92.54
2022-11-05T04:42:45.586Z,92.81
2022-11-05T04:45:12.082Z,92.54
2022-11-05T04:47:38.465Z,92.70
2022-11-05T04:50:05.185Z,92.56
2022-11-05T04:52:31.483Z,92.75
2022-11-05T04:54:57.998Z,92.86
2022-11-05T04:57:24.310Z,93.04
2022-11-05T04:59:51.888Z,93.03
2022-11-05T05:02:18.297Z,93.14
2022-11-05T05:04:44.885Z,93.15
2022-11-05T05:07:11.181Z,93.23
2022-11-05T05:09:37.527Z,93.12
2022-11-05T05:12:03.947Z,93.14
2022-11-05T05:14:30.262Z,93.02
2022-11-05T05:16:56.668Z,93.12
2022-11-05T05:19:24.602Z,93.21
2022-11-05T05:21:50.893Z,93.19
2022-11-05T05:24:19.414Z,93.06
2022-11-05T05:26:50.834Z,93.20
2022-11-05T05:29:18.416Z,92.97
2022-11-05T05:31:45.344Z,92.87
2022-11-05T05:34:13.308Z,92.53
2022-11-05T05:36:39.685Z,92.57
2022-11-05T05:39:07.577Z,92.46
2022-11-05T05:41:34.153Z,92.35
2022-11-05T05:44:00.453Z,92.29
2022-11-05T05:46:26.780Z,92.20
2022-11-05T05:48:53.086Z,92.21
2022-11-05T05:51:19.671Z,91.90
2022-11-05T05:53:46.203Z,92.09
2022-11-05T05:56:14.889Z,91.59
2022-11-05T05:58:41.266Z,91.60
2022-11-05T06:01:15.585Z,91.71
2022-11-05T06:03:44.934Z,91.86
2022-11-05T06:06:13.178Z,91.75
2022-11-05T06:08:40.251Z,91.92
2022-11-05T06:11:07.569Z,91.94
2022-11-05T06:13:34.429Z,92.03
2022-11-05T06:16:02.420Z,91.99
2022-11-05T06:18:32.249Z,92.09
2022-11-05T06:21:05.987Z,91.89
2022-11-05T06:23:37.251Z,92.00
2022-11-05T06:26:09.543Z,91.83
2022-11-05T06:28:36.193Z,91.78
2022-11-05T06:31:02.681Z,91.78
2022-11-05T06:33:29.632Z,91.86
2022-11-05T06:35:59.430Z,92.07
2022-11-05T06:38:25.742Z,92.06
2022-11-05T06:40:52.079Z,92.32
2022-11-05T06:43:18.382Z,92.20
2022-11-05T06:45:44.722Z,92.24
2022-11-05T06:48:11.057Z,92.49
2022-11-05T06:50:37.387Z,92.44
2022-11-05T06:53:04.769Z,92.56
2022-11-05T06:55:31.710Z,92.67
2022-11-05T06:57:58.120Z,92.59
2022-11-05T07:00:24.950Z,92.42
2022-11-05T07:02:51.298Z,92.14
2022-11-05T07:05:17.656Z,92.09
2022-11-05T07:07:45.271Z,92.17
2022-11-05T07:10:16.834Z,92.12
2022-11-05T07:12:43.882Z,92.03
2022-11-05T07:15:12.105Z,91.95
2022-11-05T07:17:39.705Z,91.86
2022-11-05T07:20:08.034Z,91.79
2022-11-05T07:22:35.463Z,91.82
2022-11-05T07:25:01.819Z,91.78
2022-11-05T07:27:28.365Z,91.71
2022-11-05T07:29:54.679Z,91.68
2022-11-05T07:32:20.993Z,91.58
2022-11-05T07:34:47.357Z,91.62
2022-11-05T07:37:16.471Z,91.77
2022-11-05T07:39:43.012Z,91.47
2022-11-05T07:42:13.376Z,91.14
2022-11-05T07:44:39.841Z,90.74
2022-11-05T07:47:06.182Z,90.58
2022-11-05T07:49:32.543Z,90.56
2022-11-05T07:51:58.863Z,90.59
2022-11-05T07:54:26.542Z,90.36
2022-11-05T07:56:53.028Z,90.00
2022-11-05T07:59:19.590Z,89.77
2022-11-05T08:01:46.114Z,89.61
2022-11-05T08:04:12.623Z,89.38
2022-11-05T08:06:39.041Z,89.50
2022-11-05T08:09:05.559Z,89.74
2022-11-05T08:11:32.178Z,89.54
2022-11-05T08:13:58.559Z,89.93
2022-11-05T08:16:24.914Z,89.90
2022-11-05T08:18:51.214Z,89.80
2022-11-05T08:21:17.547Z,89.91
2022-11-05T08:23:43.899Z,89.83
2022-11-05T08:26:10.189Z,89.75
2022-11-05T08:28:36.697Z,89.73
2022-11-05T08:31:03.033Z,89.57
2022-11-05T08:33:31.235Z,89.13
2022-11-05T08:36:02.177Z,88.89
2022-11-05T08:38:28.504Z,87.57
2022-11-05T08:40:57.510Z,87.08
2022-11-05T08:43:24.397Z,86.94
2022-11-05T08:45:50.771Z,85.68
2022-11-05T08:48:19.116Z,84.46
2022-11-05T08:50:48.073Z,80.11
2022-11-05T08:53:15.488Z,78.60
2022-11-05T08:55:42.511Z,77.10
2022-11-05T08:58:17.664Z,78.22
2022-11-05T09:00:46.071Z,79.89
2022-11-05T09:03:13.200Z,81.02
2022-11-05T09:05:40.827Z,82.00
2022-11-05T09:08:18.282Z,82.88
2022-11-05T09:10:46.166Z,83.18
2022-11-05T09:13:18.339Z,83.88
2022-11-05T09:15:45.889Z,83.88
2022-11-05T09:18:14.193Z,83.88
2022-11-05T09:20:40.812Z,83.89
2022-11-05T09:23:08.423Z,84.47
2022-11-05T09:25:35.122Z,84.61
2022-11-05T09:28:16.446Z,84.83
2022-11-05T09:30:45.437Z,84.37
2022-11-05T09:33:12.064Z,84.29
2022-11-05T09:35:40.036Z,84.63
2022-11-05T09:38:07.699Z,84.42
2022-11-05T09:40:57.946Z,83.82
2022-11-05T09:43:44.368Z,84.32
2022-11-05T09:46:26.286Z,84.03
2022-11-05T09:48:58.375Z,83.89
2022-11-05T09:51:24.715Z,83.29
2022-11-05T09:53:53.345Z,83.55
2022-11-05T09:56:29.513Z,83.73
2022-11-05T09:59:16.877Z,83.62
2022-11-05T10:01:45.611Z,83.46
2022-11-05T10:04:21.024Z,83.60
2022-11-05T10:07:01.860Z,83.82
2022-11-05T10:09:46.300Z,83.98
2022-11-05T10:12:20.945Z,83.70
2022-11-05T10:14:56.871Z,83.17
2022-11-05T10:17:27.278Z,83.59
2022-11-05T10:19:58.253Z,83.73
2022-11-05T10:22:24.938Z,82.71
2022-11-05T10:24:52.489Z,82.24
2022-11-05T10:27:25.339Z,81.59
2022-11-05T10:29:51.961Z,81.77
2022-11-05T10:32:39.392Z,81.38
2022-11-05T10:35:08.097Z,80.80
2022-11-05T10:37:40.691Z,80.10
2022-11-05T10:40:22.575Z,80.51
2022-11-05T10:43:00.800Z,81.32
2022-11-05T10:45:50.387Z,80.96
2022-11-05T10:48:32.513Z,80.79
2022-11-05T10:50:58.997Z,80.72
2022-11-05T10:53:35.552Z,80.54
2022-11-05T10:56:02.641Z,79.38
2022-11-05T10:58:31.393Z,78.57
2022-11-05T11:00:57.700Z,78.86
2022-11-05T11:03:42.973Z,79.14
2022-11-05T11:06:32.188Z,79.47
2022-11-05T11:09:01.809Z,79.59
2022-11-05T11:11:39.224Z,79.02
2022-11-05T11:14:18.077Z,78.47
2022-11-05T11:16:46.640Z,79.41
2022-11-05T11:19:34.804Z,78.55
2022-11-05T11:22:04.171Z,78.12
2022-11-05T11:24:37.249Z,78.11
2022-11-05T11:27:09.320Z,78.29
2022-11-05T11:29:41.995Z,78.42
2022-11-05T11:32:18.638Z,77.59
2022-11-05T11:34:48.944Z,78.48
2022-11-05T11:37:41.883Z,78.30
2022-11-05T11:40:23.954Z,77.84
2022-11-05T11:42:57.321Z,77.42
2022-11-05T11:45:32.517Z,78.06
2022-11-05T11:48:04.204Z,79.04
2022-11-05T11:50:35.284Z,78.54
2022-11-05T11:53:29.217Z,77.88
2022-11-05T11:55:55.536Z,77.55
2022-11-05T11:58:23.837Z,77.54
2022-11-05T12:01:03.782Z,77.93
2022-11-05T12:03:46.728Z,78.11
2022-11-05T12:06:27.496Z,78.41
2022-11-05T12:09:09.544Z,78.77
2022-11-05T12:11:41.678Z,78.22
2022-11-05T12:14:32.454Z,78.16
2022-11-05T12:17:23.078Z,78.41
2022-11-05T12:20:13.532Z,78.91
2022-11-05T12:22:58.210Z,79.11
2022-11-05T12:25:30.594Z,78.60
2022-11-05T12:28:28.326Z,78.54
2022-11-05T12:31:23.840Z,78.06
2022-11-05T12:34:08.919Z,78.33
2022-11-05T12:37:06.539Z,77.28
2022-11-05T12:39:43.618Z,76.04
2022-11-05T12:42:47.776Z,76.01
2022-11-05T12:45:45.594Z,76.97
2022-11-05T12:48:20.865Z,75.29
2022-11-05T12:50:59.273Z,76.37
2022-11-05T12:54:04.744Z,75.77
2022-11-05T12:56:43.434Z,75.37
2022-11-05T12:59:22.176Z,74.76
2022-11-05T13:02:02.419Z,74.93
2022-11-05T13:04:50.515Z,75.31
2022-11-05T13:07:27.629Z,74.83
2022-11-05T13:10:01.427Z,75.09
2022-11-05T13:12:33.014Z,75.60
2022-11-05T13:15:04.937Z,75.90
2022-11-05T13:17:51.246Z,75.95
2022-11-05T13:20:31.343Z,76.46
2022-11-05T13:23:06.763Z,76.75
2022-11-05T13:25:38.564Z,76.45
2022-11-05T13:28:10.830Z,76.41
2022-11-05T13:30:43.166Z,76.21
2022-11-05T13:33:17.806Z,76.04
2022-11-05T13:36:15.924Z,76.10
2022-11-05T13:38:59.765Z,76.10
2022-11-05T13:41:47.812Z,75.69
2022-11-05T13:44:52.026Z,76.34
2022-11-05T13:47:27.259Z,76.18
2022-11-05T13:50:27.701Z,75.87
2022-11-05T13:53:14.997Z,76.11
2022-11-05T13:56:06.278Z,75.21
2022-11-05T13:58:51.259Z,75.68
2022-11-05T14:01:37.121Z,75.69
2022-11-05T14:04:04.109Z,76.32
2022-11-05T14:06:36.417Z,76.05
2022-11-05T14:09:08.576Z,75.79
2022-11-05T14:11:42.685Z,75.83
2022-11-05T14:14:18.521Z,76.45
2022-11-05T14:16:52.645Z,76.12
2022-11-05T14:19:18.881Z,75.67
2022-11-05T14:21:46.236Z,75.83
2022-11-05T14:24:22.272Z,76.25
2022-11-05T14:27:00.493Z,76.46
2022-11-05T14:29:47.537Z,76.57
2022-11-05T14:32:45.489Z,76.10
2022-11-05T14:35:17.802Z,76.69
2022-11-05T14:37:53.715Z,75.99
2022-11-05T14:40:44.698Z,76.68
2022-11-05T14:43:14.338Z,76.86
2022-11-05T14:45:53.693Z,76.91
2022-11-05T14:48:43.874Z,76.90
2022-11-05T14:51:33.117Z,76.77
2022-11-05T14:54:35.570Z,77.26
2022-11-05T14:57:02.655Z,77.18
2022-11-05T14:59:28.926Z,77.54
2022-11-05T15:02:01.445Z,77.32
2022-11-05T15:04:42.531Z,77.54
2022-11-05T15:07:08.940Z,78.17
2022-11-05T15:09:41.009Z,77.85
2022-11-05T15:12:21.932Z,77.70
2022-11-05T15:14:57.437Z,77.59
2022-11-05T15:17:29.878Z,77.42
2022-11-05T15:20:07.856Z,77.61
2022-11-05T15:22:38.109Z,77.88
2022-11-05T15:25:14.178Z,77.99
2022-11-05T15:28:17.234Z,77.88
2022-11-05T15:31:19.234Z,78.00
2022-11-05T15:33:47.625Z,77.93
2022-11-05T15:36:30.387Z,78.00
2022-11-05T15:39:27.518Z,77.97
2022-11-05T15:41:44.657Z,78.27
2022-11-05T15:44:29.061Z,78.49
2022-11-05T15:47:27.333Z,78.43
2022-11-05T15:49:56.953Z,78.40
2022-11-05T15:52:31.133Z,78.62
2022-11-05T15:55:08.322Z,78.32
2022-11-05T15:57:39.912Z,79.52
2022-11-05T16:00:14.808Z,79.13
2022-11-05T16:02:41.454Z,79.07
2022-11-05T16:05:13.098Z,79.27
2022-11-05T16:07:46.526Z,79.40
2022-11-05T16:10:23.125Z,79.70
2022-11-05T16:12:49.763Z,79.62
2022-11-05T16:15:19.883Z,79.79
2022-11-05T16:17:52.573Z,79.72
2022-11-05T16:20:32.149Z,80.10
2022-11-05T16:23:01.575Z,80.05
2022-11-05T16:25:34.794Z,79.90
2022-11-05T16:28:01.754Z,80.33
2022-11-05T16:30:28.742Z,80.35
2022-11-05T16:33:03.664Z,80.06
2022-11-05T16:35:30.102Z,80.06
2022-11-05T16:37:56.414Z,80.41
2022-11-05T16:40:25.263Z,80.30
2022-11-05T16:42:53.740Z,80.64
2022-11-05T16:45:23.795Z,80.73
2022-11-05T16:47:51.058Z,80.89
2022-11-05T16:50:31.832Z,81.03
2022-11-05T16:52:58.195Z,81.21
2022-11-05T16:55:24.490Z,81.21
2022-11-05T16:57:54.202Z,81.52
2022-11-05T17:00:21.621Z,81.45
2022-11-05T17:02:48.416Z,81.42
2022-11-05T17:05:19.693Z,81.28
2022-11-05T17:07:46.418Z,81.68
2022-11-05T17:10:13.206Z,81.51
2022-11-05T17:12:39.587Z,81.98
2022-11-05T17:15:19.163Z,81.87
2022-11-05T17:17:45.813Z,82.14
2022-11-05T17:20:32.407Z,82.02
2022-11-05T17:23:02.047Z,82.23
2022-11-05T17:25:28.750Z,81.99
2022-11-05T17:27:55.515Z,82.19
2022-11-05T17:30:22.072Z,82.15
2022-11-05T17:32:48.550Z,82.25
2022-11-05T17:35:15.143Z,82.38
2022-11-05T17:37:41.832Z,82.33
2022-11-05T17:40:13.625Z,82.28
2022-11-05T17:42:39.977Z,82.34
2022-11-05T17:45:07.015Z,82.44
2022-11-05T17:47:33.326Z,82.50
2022-11-05T17:49:59.640Z,82.62
2022-11-05T17:52:27.620Z,82.52
2022-11-05T17:54:54.060Z,82.63
2022-11-05T17:57:20.455Z,82.70
2022-11-05T17:59:46.770Z,82.85
2022-11-05T18:02:13.493Z,82.60
2022-11-05T18:04:40.392Z,82.75
2022-11-05T18:07:07.182Z,82.93
2022-11-05T18:09:33.854Z,82.93
2022-11-05T18:12:00.239Z,83.07
2022-11-05T18:14:26.575Z,82.82
2022-11-05T18:16:55.243Z,83.09
2022-11-05T18:19:21.682Z,83.42
2022-11-05T18:21:47.982Z,83.41
2022-11-05T18:24:14.310Z,83.74
2022-11-05T18:26:40.659Z,83.62
2022-11-05T18:29:06.976Z,83.90
2022-11-05T18:31:33.277Z,83.71
2022-11-05T18:34:00.069Z,83.99
2022-11-05T18:36:29.482Z,83.97
2022-11-05T18:38:58.112Z,84.00
2022-11-05T18:41:24.543Z,84.07
2022-11-05T18:43:51.255Z,84.44
2022-11-05T18:46:42.995Z,84.09
2022-11-05T18:49:04.604Z,84.42
2022-11-05T18:51:31.478Z,84.24
2022-11-05T18:53:58.361Z,84.08
2022-11-05T18:56:24.757Z,84.37
2022-11-05T18:59:14.723Z,84.17
2022-11-05T19:01:40.574Z,83.98
2022-11-05T19:04:06.995Z,83.89
2022-11-05T19:06:34.189Z,83.71
2022-11-05T19:09:00.885Z,83.79
2022-11-05T19:11:27.401Z,83.86
2022-11-05T19:13:54.030Z,83.93
2022-11-05T19:16:25.538Z,83.86
2022-11-05T19:18:52.253Z,83.72
2022-11-05T19:21:21.616Z,83.97
2022-11-05T19:23:48.620Z,83.88
2022-11-05T19:26:28.659Z,83.72
2022-11-05T19:28:58.670Z,83.46
2022-11-05T19:31:25.305Z,83.74
2022-11-05T19:33:52.189Z,83.58
2022-11-05T19:36:20.598Z,83.56
2022-11-05T19:38:49.522Z,83.42
2022-11-05T19:41:18.268Z,83.59
2022-11-05T19:43:45.185Z,83.52
2022-11-05T19:46:17.982Z,83.53
2022-11-05T19:48:45.447Z,83.50
2022-11-05T19:51:15.818Z,83.55
2022-11-05T19:53:42.709Z,83.53
2022-11-05T19:56:13.063Z,83.44
2022-11-05T19:58:39.702Z,83.14
2022-11-05T20:01:06.364Z,83.19
2022-11-05T20:03:32.767Z,83.44
2022-11-05T20:06:04.329Z,83.22
2022-11-05T20:08:30.841Z,83.08
2022-11-05T20:10:57.625Z,83.14
2022-11-05T20:13:24.566Z,83.13
2022-11-05T20:15:51.066Z,83.29
2022-11-05T20:18:17.604Z,83.21
2022-11-05T20:20:44.660Z,83.20
2022-11-05T20:23:11.318Z,83.31
2022-11-05T20:25:37.688Z,83.33
2022-11-05T20:28:04.892Z,83.42
2022-11-05T20:30:31.286Z,83.22
2022-11-05T20:32:58.158Z,83.48
2022-11-05T20:35:24.745Z,83.02
2022-11-05T20:37:53.902Z,83.25
2022-11-05T20:40:20.699Z,83.23
2022-11-05T20:42:47.001Z,83.16
2022-11-05T20:45:13.529Z,83.32
2022-11-05T20:47:39.854Z,83.28
2022-11-05T20:50:06.975Z,83.13
2022-11-05T20:52:33.450Z,83.13
2022-11-05T20:55:01.076Z,83.12
2022-11-05T20:57:27.453Z,83.26
2022-11-05T20:59:53.790Z,83.10
2022-11-05T21:02:20.277Z,83.45
2022-11-05T21:04:47.446Z,83.43
2022-11-05T21:07:13.752Z,83.55
2022-11-05T21:09:40.093Z,83.65
2022-11-05T21:12:12.326Z,83.65
2022-11-05T21:14:39.923Z,83.93
2022-11-05T21:17:09.870Z,83.92
2022-11-05T21:19:36.354Z,84.04
2022-11-05T21:22:03.860Z,84.23
2022-11-05T21:24:31.169Z,84.19
2022-11-05T21:26:57.542Z,84.30
2022-11-05T21:29:23.847Z,84.41
2022-11-05T21:31:50.759Z,84.42
2022-11-05T21:34:17.853Z,84.58
2022-11-05T21:36:44.417Z,84.43
2022-11-05T21:39:13.755Z,84.84
2022-11-05T21:41:40.312Z,84.72
2022-11-05T21:44:06.614Z,84.62
2022-11-05T21:46:33.165Z,84.70
2022-11-05T21:48:59.486Z,84.73
2022-11-05T21:51:44.474Z,84.54
2022-11-05T21:54:29.595Z,84.65
2022-11-05T21:57:14.401Z,84.37
2022-11-05T21:59:51.289Z,84.66
2022-11-05T22:02:21.091Z,84.46
2022-11-05T22:04:52.769Z,84.28
2022-11-05T22:07:22.284Z,84.38
2022-11-05T22:09:48.777Z,84.45
2022-11-05T22:12:15.624Z,84.38
2022-11-05T22:14:42.389Z,84.22
2022-11-05T22:17:09.711Z,84.34
2022-11-05T22:19:36.458Z,84.26
2022-11-05T22:22:05.088Z,84.07
2022-11-05T22:24:32.046Z,84.28
2022-11-05T22:27:00.310Z,84.16
2022-11-05T22:29:27.344Z,84.26
2022-11-05T22:31:55.066Z,84.04
2022-11-05T22:34:21.631Z,84.27
2022-11-05T22:36:48.001Z,84.32
2022-11-05T22:39:14.570Z,84.21
2022-11-05T22:41:41.576Z,84.45
2022-11-05T22:44:10.182Z,84.27
2022-11-05T22:46:37.796Z,84.39
2022-11-05T22:49:04.314Z,84.39
2022-11-05T22:51:32.874Z,84.34
2022-11-05T22:54:00.142Z,84.14
2022-11-05T22:56:28.989Z,84.25
2022-11-05T22:58:55.914Z,84.16
2022-11-05T23:01:23.449Z,84.42
2022-11-05T23:03:51.833Z,84.29
2022-11-05T23:06:40.447Z,84.18
2022-11-05T23:09:43.957Z,84.13
2022-11-05T23:12:32.269Z,84.42
2022-11-05T23:15:00.603Z,84.35
2022-11-05T23:17:46.158Z,84.51
2022-11-05T23:20:34.510Z,84.30
2022-11-05T23:23:19.389Z,84.26
2022-11-05T23:25:46.193Z,84.34
2022-11-05T23:28:13.143Z,84.48
2022-11-05T23:31:02.512Z,84.54
2022-11-05T23:33:33.148Z,84.61
2022-11-05T23:36:18.464Z,84.51
2022-11-05T23:38:44.793Z,84.61
2022-11-05T23:41:29.748Z,84.67
2022-11-05T23:44:14.992Z,84.73
2022-11-05T23:46:59.562Z,84.90
2022-11-05T23:49:26.130Z,84.84
2022-11-05T23:51:52.480Z,85.23
2022-11-05T23:54:18.789Z,85.26
2022-11-05T23:56:45.752Z,85.20
2022-11-05T23:59:12.047Z,85.32
